sensor_id;sensor_type;location;lat;lon;timestamp;P1;durP1;ratioP1;P2;durP2;ratioP2
8139;SDS011;4111;50.972;7.072;2024-02-21T00:02:20;10.00;;;5.00;;
8139;SDS011;4111;50.972;7.072;2024-02-21T00:04:47;11.50;;;5.07;;
8139;SDS011;4111;50.972;7.072;2024-02-21T00:07:14;9.50;;;5.20;;
8139;SDS011;4111;50.972;7.072;2024-02-21T00:09:41;9.73;;;4.83;;
8139;SDS011;4111;50.972;7.072;2024-02-21T00:12:07;9.17;;;5.10;;
8139;SDS011;4111;50.972;7.072;2024-02-21T00:14:34;13.47;;;5.33;;
8139;SDS011;4111;50.972;7.072;2024-02-21T00:17:01;10.87;;;5.07;;
8139;SDS011;4111;50.972;7.072;2024-02-21T00:19:27;14.80;;;5.87;;
8139;SDS011;4111;50.972;7.072;2024-02-21T00:21:55;9.97;;;4.57;;
8139;SDS011;4111;50.972;7.072;2024-02-21T00:24:24;12.60;;;5.13;;
8139;SDS011;4111;50.972;7.072;2024-02-21T00:26:51;9.40;;;5.10;;
8139;SDS011;4111;50.972;7.072;2024-02-21T00:29:18;12.30;;;5.57;;
8139;SDS011;4111;50.972;7.072;2024-02-21T00:31:44;12.10;;;5.27;;
8139;SDS011;4111;50.972;7.072;2024-02-21T00:34:11;10.57;;;5.33;;
8139;SDS011;4111;50.972;7.072;2024-02-21T00:36:39;13.80;;;5.27;;
8139;SDS011;4111;50.972;7.072;2024-02-21T00:39:05;10.13;;;5.30;;
8139;SDS011;4111;50.972;7.072;2024-02-21T00:41:32;11.67;;;5.17;;
8139;SDS011;4111;50.972;7.072;2024-02-21T00:43:59;11.23;;;4.80;;
8139;SDS011;4111;50.972;7.072;2024-02-21T00:46:26;8.67;;;4.63;;
8139;SDS011;4111;50.972;7.072;2024-02-21T00:48:53;10.90;;;4.80;;
8139;SDS011;4111;50.972;7.072;2024-02-21T00:51:20;11.67;;;5.23;;
8139;SDS011;4111;50.972;7.072;2024-02-21T00:53:46;8.73;;;4.97;;
8139;SDS011;4111;50.972;7.072;2024-02-21T00:56:13;11.63;;;5.17;;
8139;SDS011;4111;50.972;7.072;2024-02-21T00:58:39;14.20;;;4.83;;
8139;SDS011;4111;50.972;7.072;2024-02-21T01:01:06;8.83;;;4.57;;
8139;SDS011;4111;50.972;7.072;2024-02-21T01:03:33;11.43;;;5.10;;
8139;SDS011;4111;50.972;7.072;2024-02-21T01:06:00;12.47;;;5.50;;
8139;SDS011;4111;50.972;7.072;2024-02-21T01:08:26;12.23;;;4.97;;
8139;SDS011;4111;50.972;7.072;2024-02-21T01:10:53;9.97;;;5.00;;
8139;SDS011;4111;50.972;7.072;2024-02-21T01:13:19;9.20;;;4.67;;
8139;SDS011;4111;50.972;7.072;2024-02-21T01:15:46;11.53;;;5.30;;
8139;SDS011;4111;50.972;7.072;2024-02-21T01:18:12;12.03;;;5.67;;
8139;SDS011;4111;50.972;7.072;2024-02-21T01:20:39;12.67;;;5.30;;
8139;SDS011;4111;50.972;7.072;2024-02-21T01:23:06;13.97;;;5.63;;
8139;SDS011;4111;50.972;7.072;2024-02-21T01:25:32;12.43;;;5.67;;
8139;SDS011;4111;50.972;7.072;2024-02-21T01:27:59;10.43;;;5.30;;
8139;SDS011;4111;50.972;7.072;2024-02-21T01:30:25;14.17;;;5.20;;
8139;SDS011;4111;50.972;7.072;2024-02-21T01:32:52;11.60;;;5.00;;
8139;SDS011;4111;50.972;7.072;2024-02-21T01:35:18;10.47;;;4.70;;
8139;SDS011;4111;50.972;7.072;2024-02-21T01:37:45;15.80;;;5.67;;
8139;SDS011;4111;50.972;7.072;2024-02-21T01:40:12;9.53;;;4.70;;
8139;SDS011;4111;50.972;7.072;2024-02-21T01:42:39;13.33;;;5.57;;
8139;SDS011;4111;50.972;7.072;2024-02-21T01:45:07;14.67;;;5.63;;
8139;SDS011;4111;50.972;7.072;2024-02-21T01:47:33;9.53;;;4.80;;
8139;SDS011;4111;50.972;7.072;2024-02-21T01:50:01;18.83;;;6.10;;
8139;SDS011;4111;50.972;7.072;2024-02-21T01:52:29;10.47;;;5.17;;
8139;SDS011;4111;50.972;7.072;2024-02-21T01:54:57;11.13;;;5.00;;
8139;SDS011;4111;50.972;7.072;2024-02-21T01:57:24;12.57;;;5.80;;
8139;SDS011;4111;50.972;7.072;2024-02-21T01:59:50;11.50;;;5.37;;
8139;SDS011;4111;50.972;7.072;2024-02-21T02:02:18;13.03;;;5.67;;
8139;SDS011;4111;50.972;7.072;2024-02-21T02:04:45;10.80;;;4.63;;
8139;SDS011;4111;50.972;7.072;2024-02-21T02:07:12;10.83;;;5.10;;
8139;SDS011;4111;50.972;7.072;2024-02-21T02:09:39;13.07;;;5.70;;
8139;SDS011;4111;50.972;7.072;2024-02-21T02:12:05;10.20;;;5.07;;
8139;SDS011;4111;50.972;7.072;2024-02-21T02:14:32;10.60;;;5.33;;
8139;SDS011;4111;50.972;7.072;2024-02-21T02:16:59;13.20;;;5.23;;
8139;SDS011;4111;50.972;7.072;2024-02-21T02:19:26;13.07;;;5.07;;
8139;SDS011;4111;50.972;7.072;2024-02-21T02:21:57;10.87;;;4.97;;
8139;SDS011;4111;50.972;7.072;2024-02-21T02:24:32;12.27;;;6.03;;
8139;SDS011;4111;50.972;7.072;2024-02-21T02:26:58;11.13;;;5.47;;
8139;SDS011;4111;50.972;7.072;2024-02-21T02:29:24;11.47;;;5.00;;
8139;SDS011;4111;50.972;7.072;2024-02-21T02:31:51;11.53;;;5.17;;
8139;SDS011;4111;50.972;7.072;2024-02-21T02:34:18;12.87;;;5.37;;
8139;SDS011;4111;50.972;7.072;2024-02-21T02:36:44;14.07;;;5.23;;
8139;SDS011;4111;50.972;7.072;2024-02-21T02:39:11;11.33;;;5.17;;
8139;SDS011;4111;50.972;7.072;2024-02-21T02:41:38;10.83;;;5.30;;
8139;SDS011;4111;50.972;7.072;2024-02-21T02:44:04;9.07;;;5.27;;
8139;SDS011;4111;50.972;7.072;2024-02-21T02:46:31;11.53;;;4.70;;
8139;SDS011;4111;50.972;7.072;2024-02-21T02:48:57;14.80;;;5.67;;
8139;SDS011;4111;50.972;7.072;2024-02-21T02:51:26;10.27;;;4.50;;
8139;SDS011;4111;50.972;7.072;2024-02-21T02:53:52;12.37;;;5.37;;
8139;SDS011;4111;50.972;7.072;2024-02-21T02:56:19;12.77;;;4.80;;
8139;SDS011;4111;50.972;7.072;2024-02-21T02:58:45;13.20;;;4.73;;
8139;SDS011;4111;50.972;7.072;2024-02-21T03:01:12;10.13;;;4.70;;
8139;SDS011;4111;50.972;7.072;2024-02-21T03:03:40;10.90;;;5.13;;
8139;SDS011;4111;50.972;7.072;2024-02-21T03:06:06;11.50;;;5.83;;
8139;SDS011;4111;50.972;7.072;2024-02-21T03:08:33;8.00;;;4.80;;
8139;SDS011;4111;50.972;7.072;2024-02-21T03:11:00;11.63;;;5.40;;
8139;SDS011;4111;50.972;7.072;2024-02-21T03:13:27;15.73;;;5.87;;
8139;SDS011;4111;50.972;7.072;2024-02-21T03:15:54;11.83;;;5.23;;
8139;SDS011;4111;50.972;7.072;2024-02-21T03:18:20;16.30;;;5.93;;
8139;SDS011;4111;50.972;7.072;2024-02-21T03:20:47;13.57;;;5.63;;
8139;SDS011;4111;50.972;7.072;2024-02-21T03:23:14;10.13;;;5.13;;
8139;SDS011;4111;50.972;7.072;2024-02-21T03:25:41;14.87;;;5.03;;
8139;SDS011;4111;50.972;7.072;2024-02-21T03:28:08;13.57;;;5.53;;
8139;SDS011;4111;50.972;7.072;2024-02-21T03:30:34;12.87;;;5.27;;
8139;SDS011;4111;50.972;7.072;2024-02-21T03:33:02;11.87;;;5.23;;
8139;SDS011;4111;50.972;7.072;2024-02-21T03:35:29;13.83;;;5.80;;
8139;SDS011;4111;50.972;7.072;2024-02-21T03:37:56;10.23;;;5.23;;
8139;SDS011;4111;50.972;7.072;2024-02-21T03:40:22;13.50;;;5.40;;
8139;SDS011;4111;50.972;7.072;2024-02-21T03:42:49;9.10;;;5.23;;
8139;SDS011;4111;50.972;7.072;2024-02-21T03:45:16;9.20;;;4.60;;
8139;SDS011;4111;50.972;7.072;2024-02-21T03:47:42;11.37;;;5.00;;
8139;SDS011;4111;50.972;7.072;2024-02-21T03:50:09;12.57;;;4.90;;
8139;SDS011;4111;50.972;7.072;2024-02-21T03:52:36;11.70;;;4.67;;
8139;SDS011;4111;50.972;7.072;2024-02-21T03:55:03;10.20;;;4.40;;
8139;SDS011;4111;50.972;7.072;2024-02-21T03:57:29;11.40;;;4.53;;
8139;SDS011;4111;50.972;7.072;2024-02-21T03:59:56;9.57;;;4.67;;
8139;SDS011;4111;50.972;7.072;2024-02-21T04:02:22;8.13;;;4.00;;
8139;SDS011;4111;50.972;7.072;2024-02-21T04:04:49;10.97;;;4.90;;
8139;SDS011;4111;50.972;7.072;2024-02-21T04:07:16;10.83;;;4.47;;
8139;SDS011;4111;50.972;7.072;2024-02-21T04:09:43;10.93;;;4.43;;
8139;SDS011;4111;50.972;7.072;2024-02-21T04:12:09;12.13;;;4.40;;
8139;SDS011;4111;50.972;7.072;2024-02-21T04:14:37;9.63;;;4.57;;
8139;SDS011;4111;50.972;7.072;2024-02-21T04:17:08;11.00;;;4.47;;
8139;SDS011;4111;50.972;7.072;2024-02-21T04:19:34;9.73;;;4.50;;
8139;SDS011;4111;50.972;7.072;2024-02-21T04:22:01;12.97;;;4.80;;
8139;SDS011;4111;50.972;7.072;2024-02-21T04:24:28;9.90;;;4.70;;
8139;SDS011;4111;50.972;7.072;2024-02-21T04:26:54;9.70;;;4.63;;
8139;SDS011;4111;50.972;7.072;2024-02-21T04:29:21;11.43;;;4.37;;
8139;SDS011;4111;50.972;7.072;2024-02-21T04:31:47;10.27;;;4.40;;
8139;SDS011;4111;50.972;7.072;2024-02-21T04:34:14;10.17;;;4.07;;
8139;SDS011;4111;50.972;7.072;2024-02-21T04:36:40;10.83;;;4.83;;
8139;SDS011;4111;50.972;7.072;2024-02-21T04:39:07;9.90;;;4.10;;
8139;SDS011;4111;50.972;7.072;2024-02-21T04:41:33;7.87;;;3.70;;
8139;SDS011;4111;50.972;7.072;2024-02-21T04:44:00;11.30;;;4.40;;
8139;SDS011;4111;50.972;7.072;2024-02-21T04:46:26;11.77;;;4.90;;
8139;SDS011;4111;50.972;7.072;2024-02-21T04:48:53;9.13;;;3.80;;
8139;SDS011;4111;50.972;7.072;2024-02-21T04:51:20;10.97;;;4.10;;
8139;SDS011;4111;50.972;7.072;2024-02-21T04:53:46;12.67;;;4.27;;
8139;SDS011;4111;50.972;7.072;2024-02-21T04:56:13;9.37;;;3.90;;
8139;SDS011;4111;50.972;7.072;2024-02-21T04:58:39;10.87;;;4.10;;
8139;SDS011;4111;50.972;7.072;2024-02-21T05:01:06;11.20;;;4.47;;
8139;SDS011;4111;50.972;7.072;2024-02-21T05:03:34;7.67;;;4.00;;
8139;SDS011;4111;50.972;7.072;2024-02-21T05:06:00;10.87;;;4.17;;
8139;SDS011;4111;50.972;7.072;2024-02-21T05:08:27;10.50;;;4.40;;
8139;SDS011;4111;50.972;7.072;2024-02-21T05:10:53;11.37;;;4.37;;
8139;SDS011;4111;50.972;7.072;2024-02-21T05:13:21;9.63;;;3.97;;
8139;SDS011;4111;50.972;7.072;2024-02-21T05:15:48;9.23;;;4.03;;
8139;SDS011;4111;50.972;7.072;2024-02-21T05:18:18;9.13;;;4.37;;
8139;SDS011;4111;50.972;7.072;2024-02-21T05:20:46;12.40;;;4.57;;
8139;SDS011;4111;50.972;7.072;2024-02-21T05:23:12;11.60;;;4.23;;
8139;SDS011;4111;50.972;7.072;2024-02-21T05:25:39;11.17;;;4.47;;
8139;SDS011;4111;50.972;7.072;2024-02-21T05:28:05;7.47;;;4.17;;
8139;SDS011;4111;50.972;7.072;2024-02-21T05:30:33;9.83;;;4.20;;
8139;SDS011;4111;50.972;7.072;2024-02-21T05:33:03;9.27;;;4.30;;
8139;SDS011;4111;50.972;7.072;2024-02-21T05:35:30;11.13;;;3.90;;
8139;SDS011;4111;50.972;7.072;2024-02-21T05:37:57;10.70;;;4.43;;
8139;SDS011;4111;50.972;7.072;2024-02-21T05:40:24;10.43;;;4.37;;
8139;SDS011;4111;50.972;7.072;2024-02-21T05:42:51;11.23;;;4.40;;
8139;SDS011;4111;50.972;7.072;2024-02-21T05:45:18;9.77;;;3.97;;
8139;SDS011;4111;50.972;7.072;2024-02-21T05:47:44;7.27;;;4.07;;
8139;SDS011;4111;50.972;7.072;2024-02-21T05:50:11;8.87;;;4.00;;
8139;SDS011;4111;50.972;7.072;2024-02-21T05:52:38;10.47;;;4.10;;
8139;SDS011;4111;50.972;7.072;2024-02-21T05:55:06;8.40;;;4.10;;
8139;SDS011;4111;50.972;7.072;2024-02-21T05:57:33;9.77;;;4.03;;
8139;SDS011;4111;50.972;7.072;2024-02-21T05:59:59;10.27;;;4.60;;
8139;SDS011;4111;50.972;7.072;2024-02-21T06:02:27;12.03;;;4.97;;
8139;SDS011;4111;50.972;7.072;2024-02-21T06:04:53;10.70;;;4.27;;
8139;SDS011;4111;50.972;7.072;2024-02-21T06:07:20;11.43;;;4.60;;
8139;SDS011;4111;50.972;7.072;2024-02-21T06:09:46;11.83;;;4.57;;
8139;SDS011;4111;50.972;7.072;2024-02-21T06:12:13;11.80;;;4.30;;
8139;SDS011;4111;50.972;7.072;2024-02-21T06:14:40;10.87;;;4.10;;
8139;SDS011;4111;50.972;7.072;2024-02-21T06:17:07;10.83;;;4.17;;
8139;SDS011;4111;50.972;7.072;2024-02-21T06:19:33;10.47;;;4.70;;
8139;SDS011;4111;50.972;7.072;2024-02-21T06:22:00;16.73;;;3.73;;
8139;SDS011;4111;50.972;7.072;2024-02-21T06:24:26;11.37;;;4.63;;
8139;SDS011;4111;50.972;7.072;2024-02-21T06:26:53;9.70;;;4.70;;
8139;SDS011;4111;50.972;7.072;2024-02-21T06:29:19;9.57;;;4.07;;
8139;SDS011;4111;50.972;7.072;2024-02-21T06:31:45;10.63;;;3.93;;
8139;SDS011;4111;50.972;7.072;2024-02-21T06:34:12;7.17;;;4.00;;
8139;SDS011;4111;50.972;7.072;2024-02-21T06:36:38;7.97;;;3.67;;
8139;SDS011;4111;50.972;7.072;2024-02-21T06:39:05;9.43;;;3.67;;
8139;SDS011;4111;50.972;7.072;2024-02-21T06:41:34;9.13;;;4.10;;
8139;SDS011;4111;50.972;7.072;2024-02-21T06:44:01;8.70;;;3.53;;
8139;SDS011;4111;50.972;7.072;2024-02-21T06:46:28;7.13;;;4.27;;
8139;SDS011;4111;50.972;7.072;2024-02-21T06:48:56;7.17;;;3.57;;
8139;SDS011;4111;50.972;7.072;2024-02-21T06:51:23;11.27;;;3.40;;
8139;SDS011;4111;50.972;7.072;2024-02-21T06:53:51;6.50;;;3.80;;
8139;SDS011;4111;50.972;7.072;2024-02-21T06:56:22;10.43;;;3.50;;
8139;SDS011;4111;50.972;7.072;2024-02-21T06:58:55;7.77;;;3.70;;
8139;SDS011;4111;50.972;7.072;2024-02-21T07:01:22;7.53;;;3.83;;
8139;SDS011;4111;50.972;7.072;2024-02-21T07:03:48;9.43;;;3.70;;
8139;SDS011;4111;50.972;7.072;2024-02-21T07:06:15;7.33;;;3.30;;
8139;SDS011;4111;50.972;7.072;2024-02-21T07:08:42;8.47;;;3.20;;
8139;SDS011;4111;50.972;7.072;2024-02-21T07:11:08;5.63;;;3.03;;
8139;SDS011;4111;50.972;7.072;2024-02-21T07:13:35;7.27;;;3.40;;
8139;SDS011;4111;50.972;7.072;2024-02-21T07:16:01;7.00;;;3.43;;
8139;SDS011;4111;50.972;7.072;2024-02-21T07:18:28;8.40;;;3.50;;
8139;SDS011;4111;50.972;7.072;2024-02-21T07:20:54;9.70;;;4.50;;
8139;SDS011;4111;50.972;7.072;2024-02-21T07:23:21;8.23;;;3.50;;
8139;SDS011;4111;50.972;7.072;2024-02-21T07:25:48;9.90;;;3.90;;
8139;SDS011;4111;50.972;7.072;2024-02-21T07:28:14;9.40;;;3.80;;
8139;SDS011;4111;50.972;7.072;2024-02-21T07:30:42;5.30;;;3.57;;
8139;SDS011;4111;50.972;7.072;2024-02-21T07:33:09;6.23;;;2.97;;
8139;SDS011;4111;50.972;7.072;2024-02-21T07:35:36;10.70;;;3.27;;
8139;SDS011;4111;50.972;7.072;2024-02-21T07:38:04;12.23;;;3.33;;
8139;SDS011;4111;50.972;7.072;2024-02-21T07:40:31;6.43;;;3.23;;
8139;SDS011;4111;50.972;7.072;2024-02-21T07:42:58;4.37;;;3.30;;
8139;SDS011;4111;50.972;7.072;2024-02-21T07:45:25;10.00;;;3.80;;
8139;SDS011;4111;50.972;7.072;2024-02-21T07:47:52;9.07;;;4.03;;
8139;SDS011;4111;50.972;7.072;2024-02-21T07:50:19;9.97;;;4.00;;
8139;SDS011;4111;50.972;7.072;2024-02-21T07:52:46;9.80;;;3.70;;
8139;SDS011;4111;50.972;7.072;2024-02-21T07:55:12;6.27;;;3.40;;
8139;SDS011;4111;50.972;7.072;2024-02-21T07:57:39;8.70;;;3.60;;
8139;SDS011;4111;50.972;7.072;2024-02-21T08:00:05;10.43;;;3.47;;
8139;SDS011;4111;50.972;7.072;2024-02-21T08:02:38;8.13;;;3.67;;
8139;SDS011;4111;50.972;7.072;2024-02-21T08:05:04;8.40;;;3.33;;
8139;SDS011;4111;50.972;7.072;2024-02-21T08:07:31;7.80;;;3.73;;
8139;SDS011;4111;50.972;7.072;2024-02-21T08:09:58;7.63;;;3.80;;
8139;SDS011;4111;50.972;7.072;2024-02-21T08:12:24;8.63;;;3.50;;
8139;SDS011;4111;50.972;7.072;2024-02-21T08:14:51;7.50;;;3.40;;
8139;SDS011;4111;50.972;7.072;2024-02-21T08:17:17;8.93;;;4.00;;
8139;SDS011;4111;50.972;7.072;2024-02-21T08:19:44;10.90;;;3.53;;
8139;SDS011;4111;50.972;7.072;2024-02-21T08:22:10;7.80;;;3.60;;
8139;SDS011;4111;50.972;7.072;2024-02-21T08:24:37;9.67;;;3.90;;
8139;SDS011;4111;50.972;7.072;2024-02-21T08:27:04;11.43;;;4.03;;
8139;SDS011;4111;50.972;7.072;2024-02-21T08:29:30;8.03;;;3.53;;
8139;SDS011;4111;50.972;7.072;2024-02-21T08:31:57;8.20;;;3.50;;
8139;SDS011;4111;50.972;7.072;2024-02-21T08:34:23;11.63;;;4.27;;
8139;SDS011;4111;50.972;7.072;2024-02-21T08:36:50;9.80;;;3.80;;
8139;SDS011;4111;50.972;7.072;2024-02-21T08:39:16;10.27;;;3.77;;
8139;SDS011;4111;50.972;7.072;2024-02-21T08:41:43;11.70;;;3.90;;
8139;SDS011;4111;50.972;7.072;2024-02-21T08:44:22;7.50;;;4.07;;
8139;SDS011;4111;50.972;7.072;2024-02-21T08:46:53;15.80;;;4.53;;
8139;SDS011;4111;50.972;7.072;2024-02-21T08:49:20;10.30;;;4.63;;
8139;SDS011;4111;50.972;7.072;2024-02-21T08:51:47;10.50;;;4.67;;
8139;SDS011;4111;50.972;7.072;2024-02-21T08:54:14;9.07;;;3.93;;
8139;SDS011;4111;50.972;7.072;2024-02-21T08:56:40;9.27;;;3.63;;
8139;SDS011;4111;50.972;7.072;2024-02-21T08:59:07;10.90;;;4.37;;
8139;SDS011;4111;50.972;7.072;2024-02-21T09:01:34;11.47;;;4.23;;
8139;SDS011;4111;50.972;7.072;2024-02-21T09:04:01;14.47;;;4.37;;
8139;SDS011;4111;50.972;7.072;2024-02-21T09:06:29;9.13;;;3.80;;
8139;SDS011;4111;50.972;7.072;2024-02-21T09:08:56;6.67;;;3.93;;
8139;SDS011;4111;50.972;7.072;2024-02-21T09:11:24;8.50;;;3.80;;
8139;SDS011;4111;50.972;7.072;2024-02-21T09:13:50;9.43;;;3.80;;
8139;SDS011;4111;50.972;7.072;2024-02-21T09:16:17;11.37;;;3.93;;
8139;SDS011;4111;50.972;7.072;2024-02-21T09:18:44;11.43;;;4.37;;
8139;SDS011;4111;50.972;7.072;2024-02-21T09:21:10;11.17;;;3.77;;
8139;SDS011;4111;50.972;7.072;2024-02-21T09:23:37;12.00;;;4.23;;
8139;SDS011;4111;50.972;7.072;2024-02-21T09:26:03;9.83;;;3.97;;
8139;SDS011;4111;50.972;7.072;2024-02-21T09:28:30;8.83;;;3.80;;
8139;SDS011;4111;50.972;7.072;2024-02-21T09:30:57;9.67;;;3.80;;
8139;SDS011;4111;50.972;7.072;2024-02-21T09:33:24;7.50;;;4.00;;
8139;SDS011;4111;50.972;7.072;2024-02-21T09:35:58;9.17;;;4.10;;
8139;SDS011;4111;50.972;7.072;2024-02-21T09:38:24;13.17;;;4.50;;
8139;SDS011;4111;50.972;7.072;2024-02-21T09:41:05;10.10;;;3.60;;
8139;SDS011;4111;50.972;7.072;2024-02-21T09:43:40;9.00;;;4.00;;
8139;SDS011;4111;50.972;7.072;2024-02-21T09:46:11;11.00;;;3.77;;
8139;SDS011;4111;50.972;7.072;2024-02-21T09:51:23;10.50;;;3.60;;
8139;SDS011;4111;50.972;7.072;2024-02-21T09:53:54;7.50;;;3.60;;
8139;SDS011;4111;50.972;7.072;2024-02-21T09:56:36;10.03;;;3.97;;
8139;SDS011;4111;50.972;7.072;2024-02-21T09:59:03;15.83;;;4.03;;
8139;SDS011;4111;50.972;7.072;2024-02-21T10:01:33;10.23;;;4.07;;
8139;SDS011;4111;50.972;7.072;2024-02-21T10:04:03;9.53;;;3.73;;
8139;SDS011;4111;50.972;7.072;2024-02-21T10:06:32;8.07;;;3.37;;
8139;SDS011;4111;50.972;7.072;2024-02-21T10:08:59;11.33;;;3.83;;
8139;SDS011;4111;50.972;7.072;2024-02-21T10:11:29;5.17;;;2.77;;
8139;SDS011;4111;50.972;7.072;2024-02-21T10:14:05;6.27;;;3.43;;
8139;SDS011;4111;50.972;7.072;2024-02-21T10:16:35;9.80;;;3.57;;
8139;SDS011;4111;50.972;7.072;2024-02-21T10:19:04;7.00;;;3.30;;
8139;SDS011;4111;50.972;7.072;2024-02-21T10:21:30;8.93;;;3.70;;
8139;SDS011;4111;50.972;7.072;2024-02-21T10:23:57;7.60;;;3.23;;
8139;SDS011;4111;50.972;7.072;2024-02-21T10:26:23;9.07;;;3.20;;
8139;SDS011;4111;50.972;7.072;2024-02-21T10:28:50;8.50;;;3.20;;
8139;SDS011;4111;50.972;7.072;2024-02-21T10:31:24;9.43;;;3.70;;
8139;SDS011;4111;50.972;7.072;2024-02-21T10:36:29;6.50;;;3.40;;
8139;SDS011;4111;50.972;7.072;2024-02-21T10:38:55;5.90;;;3.03;;
8139;SDS011;4111;50.972;7.072;2024-02-21T10:41:23;9.17;;;3.40;;
8139;SDS011;4111;50.972;7.072;2024-02-21T10:43:50;8.13;;;3.20;;
8139;SDS011;4111;50.972;7.072;2024-02-21T10:46:24;11.20;;;3.37;;
8139;SDS011;4111;50.972;7.072;2024-02-21T10:49:01;8.93;;;4.22;;
8139;SDS011;4111;50.972;7.072;2024-02-21T10:51:33;6.03;;;3.00;;
8139;SDS011;4111;50.972;7.072;2024-02-21T10:56:55;7.07;;;3.10;;
8139;SDS011;4111;50.972;7.072;2024-02-21T10:59:23;8.30;;;3.37;;
8139;SDS011;4111;50.972;7.072;2024-02-21T11:01:52;8.43;;;3.33;;
8139;SDS011;4111;50.972;7.072;2024-02-21T11:04:24;7.87;;;3.47;;
8139;SDS011;4111;50.972;7.072;2024-02-21T11:06:53;6.57;;;3.07;;
8139;SDS011;4111;50.972;7.072;2024-02-21T11:09:29;6.57;;;3.10;;
8139;SDS011;4111;50.972;7.072;2024-02-21T11:12:05;8.60;;;3.00;;
8139;SDS011;4111;50.972;7.072;2024-02-21T11:14:33;5.83;;;2.97;;
8139;SDS011;4111;50.972;7.072;2024-02-21T11:17:03;8.70;;;3.07;;
8139;SDS011;4111;50.972;7.072;2024-02-21T11:19:41;8.57;;;3.10;;
8139;SDS011;4111;50.972;7.072;2024-02-21T11:22:14;9.97;;;3.73;;
8139;SDS011;4111;50.972;7.072;2024-02-21T11:24:42;6.93;;;3.03;;
8139;SDS011;4111;50.972;7.072;2024-02-21T11:27:16;8.40;;;3.27;;
8139;SDS011;4111;50.972;7.072;2024-02-21T11:29:47;6.77;;;3.30;;
8139;SDS011;4111;50.972;7.072;2024-02-21T11:32:19;7.63;;;2.90;;
8139;SDS011;4111;50.972;7.072;2024-02-21T11:35:05;7.97;;;3.37;;
8139;SDS011;4111;50.972;7.072;2024-02-21T11:37:34;8.67;;;3.13;;
8139;SDS011;4111;50.972;7.072;2024-02-21T11:40:05;7.70;;;2.93;;
8139;SDS011;4111;50.972;7.072;2024-02-21T11:42:37;6.60;;;2.83;;
8139;SDS011;4111;50.972;7.072;2024-02-21T11:45:03;7.07;;;3.30;;
8139;SDS011;4111;50.972;7.072;2024-02-21T11:47:30;7.67;;;2.53;;
8139;SDS011;4111;50.972;7.072;2024-02-21T11:49:57;10.10;;;3.47;;
8139;SDS011;4111;50.972;7.072;2024-02-21T11:52:24;7.00;;;3.33;;
8139;SDS011;4111;50.972;7.072;2024-02-21T11:54:53;9.17;;;3.00;;
8139;SDS011;4111;50.972;7.072;2024-02-21T11:57:21;9.57;;;3.17;;
8139;SDS011;4111;50.972;7.072;2024-02-21T11:59:48;8.47;;;2.90;;
8139;SDS011;4111;50.972;7.072;2024-02-21T12:02:16;8.43;;;2.63;;
8139;SDS011;4111;50.972;7.072;2024-02-21T12:04:43;9.27;;;3.00;;
8139;SDS011;4111;50.972;7.072;2024-02-21T12:07:10;5.03;;;2.77;;
8139;SDS011;4111;50.972;7.072;2024-02-21T12:09:37;6.70;;;2.70;;
8139;SDS011;4111;50.972;7.072;2024-02-21T12:12:04;12.03;;;3.17;;
8139;SDS011;4111;50.972;7.072;2024-02-21T12:14:33;7.13;;;2.63;;
8139;SDS011;4111;50.972;7.072;2024-02-21T12:17:01;6.90;;;2.60;;
8139;SDS011;4111;50.972;7.072;2024-02-21T12:19:32;7.90;;;2.70;;
8139;SDS011;4111;50.972;7.072;2024-02-21T12:22:00;9.50;;;3.03;;
8139;SDS011;4111;50.972;7.072;2024-02-21T12:24:28;4.97;;;2.60;;
8139;SDS011;4111;50.972;7.072;2024-02-21T12:26:55;5.30;;;2.67;;
8139;SDS011;4111;50.972;7.072;2024-02-21T12:29:23;6.40;;;2.67;;
8139;SDS011;4111;50.972;7.072;2024-02-21T12:31:53;7.23;;;2.63;;
8139;SDS011;4111;50.972;7.072;2024-02-21T12:34:21;7.17;;;2.57;;
8139;SDS011;4111;50.972;7.072;2024-02-21T12:37:03;5.97;;;3.13;;
8139;SDS011;4111;50.972;7.072;2024-02-21T12:39:30;5.10;;;3.10;;
8139;SDS011;4111;50.972;7.072;2024-02-21T12:41:58;7.77;;;2.77;;
8139;SDS011;4111;50.972;7.072;2024-02-21T12:44:24;6.57;;;2.60;;
8139;SDS011;4111;50.972;7.072;2024-02-21T12:46:51;6.47;;;2.80;;
8139;SDS011;4111;50.972;7.072;2024-02-21T12:49:21;5.50;;;2.67;;
8139;SDS011;4111;50.972;7.072;2024-02-21T12:51:47;7.63;;;2.93;;
8139;SDS011;4111;50.972;7.072;2024-02-21T12:54:14;5.90;;;2.70;;
8139;SDS011;4111;50.972;7.072;2024-02-21T12:56:41;8.33;;;3.00;;
8139;SDS011;4111;50.972;7.072;2024-02-21T12:59:07;8.00;;;3.37;;
8139;SDS011;4111;50.972;7.072;2024-02-21T13:01:35;8.27;;;3.20;;
8139;SDS011;4111;50.972;7.072;2024-02-21T13:04:04;7.60;;;2.73;;
8139;SDS011;4111;50.972;7.072;2024-02-21T13:06:31;7.60;;;2.40;;
8139;SDS011;4111;50.972;7.072;2024-02-21T13:08:57;6.77;;;2.77;;
8139;SDS011;4111;50.972;7.072;2024-02-21T13:11:25;6.87;;;2.60;;
8139;SDS011;4111;50.972;7.072;2024-02-21T13:13:54;5.37;;;2.50;;
8139;SDS011;4111;50.972;7.072;2024-02-21T13:16:21;9.00;;;2.57;;
8139;SDS011;4111;50.972;7.072;2024-02-21T13:18:48;3.80;;;2.20;;
8139;SDS011;4111;50.972;7.072;2024-02-21T13:21:15;7.97;;;2.67;;
8139;SDS011;4111;50.972;7.072;2024-02-21T13:23:42;7.07;;;2.77;;
8139;SDS011;4111;50.972;7.072;2024-02-21T13:26:10;6.53;;;2.77;;
8139;SDS011;4111;50.972;7.072;2024-02-21T13:28:37;7.20;;;2.47;;
8139;SDS011;4111;50.972;7.072;2024-02-21T13:31:04;7.50;;;2.50;;
8139;SDS011;4111;50.972;7.072;2024-02-21T13:33:30;4.10;;;2.40;;
8139;SDS011;4111;50.972;7.072;2024-02-21T13:35:57;4.93;;;2.47;;
8139;SDS011;4111;50.972;7.072;2024-02-21T13:38:24;6.13;;;2.90;;
8139;SDS011;4111;50.972;7.072;2024-02-21T13:40:51;6.13;;;2.53;;
8139;SDS011;4111;50.972;7.072;2024-02-21T13:43:17;5.30;;;2.50;;
8139;SDS011;4111;50.972;7.072;2024-02-21T13:45:54;7.40;;;2.77;;
8139;SDS011;4111;50.972;7.072;2024-02-21T13:48:25;7.23;;;2.73;;
8139;SDS011;4111;50.972;7.072;2024-02-21T13:50:53;7.40;;;2.73;;
8139;SDS011;4111;50.972;7.072;2024-02-21T13:53:20;5.73;;;2.70;;
8139;SDS011;4111;50.972;7.072;2024-02-21T13:55:47;7.57;;;2.43;;
8139;SDS011;4111;50.972;7.072;2024-02-21T13:58:15;9.40;;;2.80;;
8139;SDS011;4111;50.972;7.072;2024-02-21T14:00:41;8.13;;;3.07;;
8139;SDS011;4111;50.972;7.072;2024-02-21T14:03:08;4.63;;;2.43;;
8139;SDS011;4111;50.972;7.072;2024-02-21T14:05:36;5.57;;;2.83;;
8139;SDS011;4111;50.972;7.072;2024-02-21T14:08:06;8.37;;;3.03;;
8139;SDS011;4111;50.972;7.072;2024-02-21T14:10:33;8.63;;;2.87;;
8139;SDS011;4111;50.972;7.072;2024-02-21T14:13:00;5.03;;;2.60;;
8139;SDS011;4111;50.972;7.072;2024-02-21T14:15:26;6.03;;;2.43;;
8139;SDS011;4111;50.972;7.072;2024-02-21T14:17:53;5.53;;;2.30;;
8139;SDS011;4111;50.972;7.072;2024-02-21T14:20:21;5.10;;;2.63;;
8139;SDS011;4111;50.972;7.072;2024-02-21T14:22:48;8.00;;;2.77;;
8139;SDS011;4111;50.972;7.072;2024-02-21T14:25:14;7.87;;;2.77;;
8139;SDS011;4111;50.972;7.072;2024-02-21T14:27:42;6.23;;;2.70;;
8139;SDS011;4111;50.972;7.072;2024-02-21T14:30:10;5.33;;;2.60;;
8139;SDS011;4111;50.972;7.072;2024-02-21T14:32:37;5.23;;;2.63;;
8139;SDS011;4111;50.972;7.072;2024-02-21T14:35:04;5.00;;;2.43;;
8139;SDS011;4111;50.972;7.072;2024-02-21T14:37:32;5.37;;;2.33;;
8139;SDS011;4111;50.972;7.072;2024-02-21T14:39:59;11.17;;;2.97;;
8139;SDS011;4111;50.972;7.072;2024-02-21T14:42:27;4.97;;;2.60;;
8139;SDS011;4111;50.972;7.072;2024-02-21T14:44:53;5.47;;;2.80;;
8139;SDS011;4111;50.972;7.072;2024-02-21T14:47:22;6.70;;;2.47;;
8139;SDS011;4111;50.972;7.072;2024-02-21T14:49:48;6.60;;;2.60;;
8139;SDS011;4111;50.972;7.072;2024-02-21T14:52:15;10.30;;;2.70;;
8139;SDS011;4111;50.972;7.072;2024-02-21T14:54:43;7.23;;;2.47;;
8139;SDS011;4111;50.972;7.072;2024-02-21T14:57:15;4.73;;;2.47;;
8139;SDS011;4111;50.972;7.072;2024-02-21T14:59:41;6.20;;;2.43;;
8139;SDS011;4111;50.972;7.072;2024-02-21T15:02:08;5.27;;;2.27;;
8139;SDS011;4111;50.972;7.072;2024-02-21T15:04:36;6.33;;;2.57;;
8139;SDS011;4111;50.972;7.072;2024-02-21T15:07:03;5.60;;;2.60;;
8139;SDS011;4111;50.972;7.072;2024-02-21T15:09:30;5.27;;;2.57;;
8139;SDS011;4111;50.972;7.072;2024-02-21T15:11:56;6.53;;;2.23;;
8139;SDS011;4111;50.972;7.072;2024-02-21T15:14:23;4.77;;;2.30;;
8139;SDS011;4111;50.972;7.072;2024-02-21T15:16:51;7.30;;;2.70;;
8139;SDS011;4111;50.972;7.072;2024-02-21T15:19:18;7.00;;;2.87;;
8139;SDS011;4111;50.972;7.072;2024-02-21T15:21:44;5.23;;;2.50;;